Albion, PA

8:02 PM EDT on September 20, 2014 (GMT -0400)
Albion Cranesville | Change Station
CLOSE
Current Station
Personal Weather Station
Location: Albion, PA
Elevation: 984 ft
Nearby Weather Stations

Elev 984 ft 41.89 °N, 80.35 °W | Updated 10 minutes ago

Clear
Clear
71.1 °F
Feels Like 71.1 °F
N
0.0
Wind Variable Wind from WSW

Today
High -- | Low -- °F
--% Chance of Precip.
Yesterday
High -- | Low -- °F
Precip. -- in
7:06 AM 7:22 PM
Waning Crescent, 10% visible
Pressure 29.86 in
Visibility 10.0 miles
Clouds Clear
Dew Point 71 °F
Humidity 99%
Rainfall 0.00 in
Snow Depth Not available.
UV 0 out of 12
Pollen 5.40 out of 12
Air Quality Not available.
Flu Activity Not available.
METAR KERI 202351Z 18011KT 10SM CLR 23/16 A2987 RMK AO2 SLP112 T02280161 10261 20228 55008 $

More Conditions Fewer Conditions

Pressure 29.86 in
Visibility 10.0 miles
Clouds Clear
Dew Point 71 °F
Humidity 99%
Rainfall 0.00 in
Snow Depth Not available.
UV 0 out of 12
Pollen 5.40 out of 12
Air Quality Not available.
Flu Activity Not available.
METAR KERI 202351Z 18011KT 10SM CLR 23/16 A2987 RMK AO2 SLP112 T02280161 10261 20228 55008 $

More Conditions Fewer Conditions

10-Day Weather Forecast

Almanac

Astronomy

Sep. 20, 2014 Rise Set
Actual Time 7:06 AM EDT 7:22 PM EDT
Civil Twilight 6:39 AM EDT 7:50 PM EDT
Nautical Twilight 6:06 AM EDT 8:22 PM EDT
Astronomical Twilight 5:32 AM EDT 8:56 PM EDT
Moon 3:42 AM EDT (9/20) 5:27 PM EDT (9/20)
Length of Visible Light 13h 11m
Length of Day
12h 15m
Tomorrow will be 2m 48s shorter.
Waning Crescent, 10% of the Moon is Illuminated
Today
Waning Crescent
Sep 24
New
Oct 1
First Quarter
Oct 8
Full
Oct 15
Last Quarter

Today's Extremes

State Highs State Lows

Community

WunderPhotos

Upload Photos

1,754,982 photos uploaded!

WunderBlogs® & News

Nearby

Snow Depth

Station Depth Elevation
No new snow has been reported.

Earthquake Activity

City Distance Mag. Time & Date
No recent earthquake activity has been reported nearby.
Minimum magnitude displayed is 2.5.

Coastal Water Temperatures

Place Temperature
Fairport, OH 66.9 °F
Buffalo, NY 66.9 °F

Nearby Weather Stations